• Join FlightAware (Why Join?)
  • Login
  • US Flag 
07:28AM EDT


 

Airport Tracker/Info


-or-


 

Live Flight TrackerFlight Track Log ✈ AAL1144 ✈ 30-Apr-2013 ✈ KSNA - KORD

Flight Track Log - Related Links

Times and Time Zones

All times are in EDT time to prevent confusion due to time zone crossing. See the AAL1144 flight status page for this flight to view local times or setup timezone preferences in your user account.

Time Position Orientation Groundspeed Altitude Reporting Facility
EDT Latitude Longitude Course Direction KTS MPH feet Rate Location/Type
08:03PM 33.6333 -117.8833 90° East 157 181 2,200  Level Southern California TRACON
08:04PM 33.5725 -117.8972 191° South 238 274 4,600 2,400 Climbing Los Angeles Center
08:05PM 33.4996 -117.6285 54° Northeast  Level FlightAware Approximate
08:05PM 33.5369 -117.8233 120° Southeast 286 329 7,500  Level Los Angeles Center
08:06PM 33.5573 -117.4916 66° East  Level FlightAware Approximate
08:06PM 33.5525 -117.7219 80° East 305 351 11,200  Level Los Angeles Center
08:07PM 33.5833 -117.3438 90° East  Level FlightAware Approximate
08:07PM 33.5636 -117.6364 81° East 317 365 13,300  Level Los Angeles Center
08:08PM 33.5833 -117.1898 90° East  Level FlightAware Approximate
08:08PM 33.5719 -117.4697 87° East 359 413 17,500  Level Los Angeles Center
08:09PM 33.5786 -117.3417 86° East 385 443 19,800 2,340 Climbing Los Angeles Center
08:10PM 33.5847 -117.2069 87° East 405 466 22,400 1,500 Climbing Los Angeles Center
08:11PM 33.5908 -117.0728 87° East 405 466 23,000 420 Climbing Los Angeles Center
08:12PM 33.5969 -116.9394 87° East 404 465 23,300 960 Climbing Los Angeles Center
08:13PM 33.6033 -116.7753 87° East 416 479 25,000 1,680 Climbing Los Angeles Center
08:14PM 33.6097 -116.6350 87° East 421 484 26,800 1,860 Climbing Los Angeles Center
08:15PM 33.6147 -116.4919 88° East 425 489 28,900 1,800 Climbing Los Angeles Center
08:16PM 33.6214 -116.3475 87° East 429 494 30,600 1,440 Climbing Los Angeles Center
08:17PM 33.6261 -116.1983 88° East 440 506 31,900 1,500 Climbing Los Angeles Center
08:19PM 33.6608 -116.0550 74° East 441 507 33,700 1,740 Climbing Los Angeles Center
08:20PM 33.7161 -115.8889 68° East 445 512 35,500 1,500 Climbing Los Angeles Center
08:21PM 33.7608 -115.7508 69° East 444 511 36,900 1,200 Climbing Los Angeles Center
08:23PM 33.8492 -115.4758 69° East 440 506 39,300 1,020 Climbing Los Angeles Center
08:24PM 33.8936 -115.3397 68° East 438 504 40,100 720 Climbing Los Angeles Center
08:25PM 33.9358 -115.2031 70° East 436 502 40,800 360 Climbing Los Angeles Center
08:26PM 33.9892 -115.0403 68° East 436 502 40,900  Climbing Los Angeles Center
08:27PM 34.0314 -114.9033 70° East 438 504 40,900  Level Los Angeles Center
08:28PM 34.0747 -114.7675 69° East 434 499 41,000  Climbing Los Angeles Center
08:29PM 34.1267 -114.6375 64° Northeast 428 493 41,000 -60 Level Los Angeles Center
08:30PM 34.1958 -114.5217 54° Northeast 427 491 40,900  Descending Los Angeles Center
08:31PM 34.2783 -114.3822 54° Northeast 424 488 41,000 60 Climbing Los Angeles Center
08:31PM 34.3053 -114.3342 56° Northeast 422 486 41,000  Level Albuquerque Center
08:32PM 34.3750 -114.2128 55° Northeast 430 495 41,000  Level Albuquerque Center
08:33PM 34.4136 -114.1494 54° Northeast 422 486 41,000  Level Los Angeles Center
08:34PM 34.4442 -114.0947 56° Northeast 431 496 41,000  Level Albuquerque Center
08:35PM 34.5119 -113.9789 55° Northeast 429 494 41,000  Level Albuquerque Center
08:36PM 34.5847 -113.8675 52° Northeast 426 490 41,000  Level Albuquerque Center
08:37PM 34.6758 -113.7314 51° Northeast 428 493 41,000 -60 Level Albuquerque Center
08:38PM 34.7489 -113.6217 51° Northeast 431 496 40,900  Descending Albuquerque Center
08:39PM 34.8228 -113.5069 52° Northeast 433 498 41,000  Climbing Albuquerque Center
08:39PM 34.8828 -113.4161 51° Northeast 433 498 41,000  Level Los Angeles Center
08:40PM 34.9578 -113.3011 51° Northeast 435 501 41,000  Level Los Angeles Center
08:41PM 34.9722 -113.2767 54° Northeast 436 502 41,000  Level Albuquerque Center
08:42PM 35.0472 -113.1617 51° Northeast 437 503 41,000  Level Albuquerque Center
08:43PM 35.1364 -113.0233 52° Northeast 437 503 41,000  Level Albuquerque Center
08:44PM 35.1822 -112.9525 52° Northeast 437 503 41,000  Level Los Angeles Center
08:45PM 35.2711 -112.8119 52° Northeast 436 502 41,000  Level Los Angeles Center
08:45PM 35.2833 -112.7922 53° Northeast 442 509 41,000  Level Albuquerque Center
08:46PM 35.3583 -112.6761 52° Northeast 442 509 41,000  Level Albuquerque Center
08:47PM 35.4181 -112.5839 52° Northeast 446 513 41,000  Level Los Angeles Center
08:48PM 35.4933 -112.4628 53° Northeast 449 517 41,000  Level Los Angeles Center
08:49PM 35.5833 -112.3214 52° Northeast 444 511 41,000  Level Los Angeles Center
08:49PM 35.6153 -112.2747 50° Northeast 445 512 41,000  Level Albuquerque Center
08:50PM 35.6589 -112.2028 53° Northeast 444 511 41,000  Level Los Angeles Center
08:51PM 35.7336 -112.0839 52° Northeast 442 509 41,000  Level Los Angeles Center
08:52PM 35.8067 -111.9664 53° Northeast 436 502 41,000  Level Los Angeles Center
08:53PM 35.8800 -111.8469 53° Northeast 438 504 41,000  Level Los Angeles Center
08:54PM 35.9625 -111.7153 52° Northeast 440 506 41,000  Level Los Angeles Center
08:55PM 36.0372 -111.5936 53° Northeast 449 517 41,000  Level Denver Center
08:56PM 36.1136 -111.4719 52° Northeast 450 518 41,000  Level Denver Center
08:57PM 36.1881 -111.3492 53° Northeast 449 517 41,000  Level Denver Center
08:58PM 36.2775 -111.2025 53° Northeast 447 514 41,000  Level Denver Center
08:59PM 36.3683 -111.0553 53° Northeast 449 517 41,000  Level Denver Center
09:00PM 36.4417 -110.9322 53° Northeast 447 514 41,000  Level Denver Center
09:01PM 36.5183 -110.8072 53° Northeast 451 519 41,000  Level Denver Center
09:02PM 36.5931 -110.6817 53° Northeast 453 521 41,000  Level Denver Center
09:03PM 36.6700 -110.5544 53° Northeast 459 528 41,000  Level Denver Center
09:04PM 36.7456 -110.4281 53° Northeast 457 526 41,000  Level Denver Center
09:05PM 36.8208 -110.3019 53° Northeast 455 524 41,000  Level Denver Center
09:06PM 36.8967 -110.1758 53° Northeast 455 524 41,000  Level Denver Center
09:07PM 36.9850 -110.0250 54° Northeast 453 521 41,000  Level Denver Center
09:08PM 37.0622 -109.9058 51° Northeast 457 526 41,000  Level Denver Center
09:09PM 37.1403 -109.7875 50° Northeast 457 526 41,000  Level Denver Center
09:10PM 37.2317 -109.6503 50° Northeast 458 527 41,000  Level Denver Center
09:11PM 37.3094 -109.5297 51° Northeast 462 532 41,000  Level Denver Center
09:13PM 37.4000 -109.3928 50° Northeast 457 526 41,000  Level Denver Center
09:14PM 37.4908 -109.2514 51° Northeast 462 532 41,000  Level Denver Center
09:15PM 37.5814 -109.1136 50° Northeast 458 527 41,000  Level Denver Center
09:16PM 37.6594 -108.9922 51° Northeast 462 532 41,000  Level Denver Center
09:17PM 37.7381 -108.8700 51° Northeast 466 536 41,000  Level Denver Center
09:18PM 37.8167 -108.7458 51° Northeast 470 541 41,000  Level Denver Center
09:19PM 37.9089 -108.6036 51° Northeast 468 539 41,000  Level Denver Center
09:20PM 38.0003 -108.4594 51° Northeast 470 541 41,000  Level Denver Center
09:21PM 38.0836 -108.3253 52° Northeast 474 545 41,000  Level Denver Center
09:22PM 38.1739 -108.1811 51° Northeast 468 539 41,000  Level Denver Center
09:23PM 38.2644 -108.0361 51° Northeast 470 541 41,000  Level Denver Center
09:24PM 38.3425 -107.9128 51° Northeast 470 541 41,000  Level Denver Center
09:25PM 38.4325 -107.7669 52° Northeast 471 542 41,000  Level Denver Center
09:26PM 38.5108 -107.6428 51° Northeast 471 542 41,000  Level Denver Center
09:27PM 38.5764 -107.5358 52° Northeast 475 547 41,000  Level Denver Center
09:28PM 38.6822 -107.3631 52° Northeast 486 559 41,000  Level Denver Center
09:29PM 38.7764 -107.2092 52° Northeast 491 565 41,000  Level Denver Center
09:30PM 38.8583 -107.0742 52° Northeast 500 575 41,000  Level Denver Center
09:31PM 38.9378 -106.9419 52° Northeast 494 568 41,000  Level Denver Center
09:33PM 39.0597 -106.7419 52° Northeast 494 568 41,000  Level Denver Center
09:34PM 39.1508 -106.5889 52° Northeast 486 559 41,000  Level Denver Center
09:35PM 39.2314 -106.4561 52° Northeast 489 563 41,000  Level Denver Center
09:36PM 39.2958 -106.3444 53° Northeast 489 563 41,000  Level Denver Center
09:37PM 39.4036 -106.1625 52° Northeast 489 563 41,000  Level Denver Center
09:38PM 39.4836 -106.0269 53° Northeast 488 562 41,000  Level Denver Center
09:39PM 39.5469 -105.8667 63° Northeast 493 567 41,000  Level Denver Center
09:40PM 39.6203 -105.6761 63° Northeast 499 574 41,000  Level Denver Center
09:41PM 39.6794 -105.5131 65° Northeast 494 568 41,000  Level Denver Center
09:42PM 39.7386 -105.3486 65° Northeast 497 572 41,000  Level Denver Center
09:43PM 39.7972 -105.1856 65° Northeast 487 560 41,000  Level Denver Center
09:44PM 39.8583 -105.0169 65° Northeast 500 575 41,000  Level Denver Center
09:45PM 39.9178 -104.8508 65° Northeast 493 567 41,000  Level Denver Center
09:46PM 39.9758 -104.6858 65° Northeast 488 562 41,000  Level Denver Center
09:47PM 40.0344 -104.5178 65° Northeast 496 571 41,000  Level Denver Center
09:48PM 40.0931 -104.3464 66° East 497 572 41,000  Level Denver Center
09:49PM 40.1511 -104.1789 66° East 494 568 41,000  Level Denver Center
09:50PM 40.2078 -104.0128 66° East 490 564 41,000  Level Denver Center
09:51PM 40.2642 -103.8497 66° East 480 552 41,000  Level Denver Center
09:52PM 40.3222 -103.6900 64° Northeast 459 528 41,000  Level Denver Center
09:53PM 40.3769 -103.5247 66° East 486 559 41,000  Level Denver Center
09:54PM 40.4414 -103.3336 66° East 486 559 41,000  Level Denver Center
09:55PM 40.4958 -103.1703 66° East 485 558 41,000  Level Denver Center
09:57PM 40.5614 -102.9781 66° East 490 564 41,000  Level Denver Center
09:58PM 40.5739 -102.8008 85° East 486 559 41,000  Level Denver Center
09:59PM 40.5683 -102.6228 92° East 478 550 41,000  Level Denver Center
10:00PM 40.5636 -102.4553 92° East 479 551 41,000  Level Denver Center
10:01PM 40.5567 -102.2311 92° East 481 554 41,000  Level Denver Center
10:02PM 40.5497 -102.0322 93° East 486 559 41,000  Level Denver Center
10:03PM 40.5450 -101.8653 92° East 480 552 41,000  Level Denver Center
10:04PM 40.5381 -101.6672 93° East 486 559 41,000  Level Denver Center
10:05PM 40.5308 -101.4983 93° East 487 560 41,000  Level Denver Center
10:06PM 40.5239 -101.3306 93° East 483 556 41,000  Level Denver Center
10:07PM 40.5156 -101.1347 93° East 485 558 41,000  Level Denver Center
10:08PM 40.5072 -100.9689 94° East 482 555 41,000  Level Denver Center
10:09PM 40.4994 -100.7750 93° East 481 554 41,000  Level Denver Center
10:10PM 40.4917 -100.6092 93° East 480 552 41,000  Level Denver Center
10:12PM 40.4797 -100.3264 93° East 476 548 41,000  Level Minneapolis Center
10:12PM 40.4739 -100.2533 96° East 475 547 41,000  Level Denver Center
10:13PM 40.4647 -100.0642 94° East 469 540 41,000  Level Denver Center
10:14PM 40.4556 -99.9031 94° East 464 534 41,000  Level Denver Center
10:15PM 40.4481 -99.7481 94° East 464 534 41,000  Level Denver Center
10:18PM 40.4228 -99.3133 94° East 461 531 41,000  Level Kansas City Center
10:18PM 40.4169 -99.2144 94° East 457 526 41,000  Level Denver Center
10:19PM 40.4075 -99.0511 94° East 453 521 41,000  Level Denver Center
10:20PM 40.4033 -98.9861 95° East 454 522 41,000  Level Minneapolis Center
10:21PM 40.3906 -98.7889 95° East 455 524 41,000  Level Minneapolis Center
10:22PM 40.3800 -98.6225 95° East 458 527 41,000  Level Minneapolis Center
10:23PM 40.3694 -98.4564 95° East 460 529 41,000  Level Minneapolis Center
10:24PM 40.3583 -98.2875 95° East 464 534 41,000  Level Minneapolis Center
10:25PM 40.3469 -98.1178 95° East 468 539 41,000  Level Minneapolis Center
10:26PM 40.3353 -97.9481 95° East 469 540 41,000  Level Minneapolis Center
10:27PM 40.3225 -97.7778 96° East 470 541 41,000  Level Minneapolis Center
10:28PM 40.3106 -97.6078 95° East 470 541 41,000  Level Minneapolis Center
10:29PM 40.2986 -97.4375 95° East 470 541 41,000  Level Minneapolis Center
10:30PM 40.2844 -97.2533 96° East 469 540 41,000  Level Minneapolis Center
10:31PM 40.2711 -97.0869 96° East 465 535 41,000  Level Minneapolis Center
10:32PM 40.2581 -96.9189 96° East 465 535 41,000  Level Minneapolis Center
10:33PM 40.2450 -96.7539 96° East 460 529 41,000  Level Minneapolis Center
10:34PM 40.2319 -96.5900 96° East 456 525 41,000  Level Minneapolis Center
10:35PM 40.2186 -96.4283 96° East 452 520 41,000  Level Minneapolis Center
10:36PM 40.2053 -96.2664 96° East 450 518 41,000  Level Minneapolis Center
10:37PM 40.2178 -96.1042 84° East 452 520 41,000  Level Minneapolis Center
10:38PM 40.2453 -95.9425 77° East 455 524 41,000  Level Minneapolis Center
10:39PM 40.2797 -95.7475 77° East 459 528 41,000  Level Minneapolis Center
10:40PM 40.3067 -95.5878 77° East 455 524 41,000  Level Minneapolis Center
10:41PM 40.3342 -95.4283 77° East 453 521 41,000  Level Minneapolis Center
10:42PM 40.3611 -95.2675 78° East 453 521 41,000  Level Minneapolis Center
10:43PM 40.3883 -95.1056 78° East 454 522 41,000  Level Minneapolis Center
10:44PM 40.4147 -94.9447 78° East 454 522 41,000  Level Minneapolis Center
10:45PM 40.4400 -94.7833 78° East 454 522 41,000  Level Minneapolis Center
10:46PM 40.4667 -94.6203 78° East 455 524 41,000  Level Minneapolis Center
10:47PM 40.4983 -94.4214 78° East 461 531 41,000  Level Minneapolis Center
10:48PM 40.5239 -94.2578 78° East 462 532 41,000  Level Minneapolis Center
10:49PM 40.5486 -94.0944 79° East 461 531 41,000  Level Minneapolis Center
10:51PM 40.5758 -93.9319 78° East 460 529 41,000  Level Minneapolis Center
10:52PM 40.6039 -93.7378 79° East 456 525 41,000  Level Minneapolis Center
10:53PM 40.6245 -93.5721 81° East  Level FlightAware Approximate
10:53PM 40.6478 -93.4453 81° East 454 522 41,000  Level Chicago Center
10:54PM 40.6733 -93.2839 78° East 450 518 41,000  Level Chicago Center
10:55PM 40.6975 -93.1225 79° East 450 518 41,000  Level Chicago Center
10:56PM 40.7208 -92.9625 79° East 447 514 41,000  Level Chicago Center
10:57PM 40.7447 -92.8019 79° East 447 514 41,000  Level Chicago Center
10:58PM 40.7681 -92.6394 79° East 449 517 41,000 -480 Level Chicago Center
10:59PM 40.7908 -92.4778 79° East 448 516 40,100 -960 Descending Chicago Center
11:00PM 40.8111 -92.3156 81° East 449 517 39,100 -960 Descending Chicago Center
11:01PM 40.8231 -92.1525 84° East 449 517 38,200 -960 Descending Chicago Center
11:02PM 40.8372 -91.9897 83° East 447 514 37,200 -960 Descending Chicago Center
11:03PM 40.8528 -91.8250 83° East 453 521 36,300 -960 Descending Chicago Center
11:04PM 40.8778 -91.6636 78° East 452 520 35,300 -1,080 Descending Chicago Center
11:05PM 40.9058 -91.4667 79° East 456 525 34,200 -660 Descending Chicago Center
11:07PM 40.9286 -91.3036 79° East 455 524 34,000 -120 Descending Chicago Center
11:08PM 40.9519 -91.1447 79° East 456 525 34,000  Level Chicago Center
11:09PM 40.9753 -90.9814 79° East 454 522 34,000  Level Chicago Center
11:10PM 40.9983 -90.8156 80° East 457 526 34,000 -60 Level Chicago Center
11:11PM 41.0208 -90.6508 80° East 455 524 33,900 -600 Descending Chicago Center
11:12PM 41.0431 -90.4864 80° East 453 521 32,900 -960 Descending Chicago Center
11:13PM 41.0647 -90.3175 80° East 461 531 32,000 -960 Descending Chicago Center
11:14PM 41.0878 -90.1494 80° East 460 529 31,000 -1,200 Descending Chicago Center
11:15PM 41.1108 -89.9792 80° East 465 535 29,700 -1,320 Descending Chicago Center
11:16PM 41.1581 -89.8156 69° East 477 549 28,400 -1,200 Descending Chicago Center
11:17PM 41.2089 -89.6603 66° East 462 532 27,300 -1,800 Descending Chicago Center
11:18PM 41.2572 -89.5122 66° East 434 499 24,800 -2,460 Descending Chicago Center
11:19PM 41.3039 -89.3686 67° East 421 484 22,400 -2,340 Descending Chicago Center
11:20PM 41.3483 -89.2322 66° East 402 463 20,100 -2,400 Descending Chicago Center
11:21PM 41.3933 -89.0794 69° East 385 443 17,600 -2,400 Descending Chicago Center
11:22PM 41.4342 -88.9525 67° East 376 433 15,300 -2,040 Descending Chicago Center
11:24PM 41.5167 -88.6833 68° East 356 410 11,000 -1,440 Descending Chicago TRACON
11:25PM 41.5569 -88.5925 59° Northeast 352 405 11,000  Level Chicago Center
11:26PM 41.6206 -88.4844 52° Northeast 362 417 11,000 -120 Level Chicago Center
11:27PM 41.6875 -88.3800 49° Northeast 368 423 10,800 -540 Descending Chicago Center
11:28PM 41.7494 -88.2836 49° Northeast 345 397 10,000 -540 Descending Chicago Center
11:29PM 41.8033 -88.1978 50° Northeast 305 351 9,800 -480 Descending Chicago Center
11:30PM 41.8653 -88.1208 43° Northeast 305 351 9,100 -780 Descending Chicago Center
11:31PM 41.9411 -88.0650 29° Northeast 311 358 8,300 -960 Descending Chicago Center
11:32PM 42.0333 -88.0000 28° Northeast 296 341 7,100 -1,020 Descending Chicago TRACON
11:33PM 42.1000 -87.9500 29° Northeast 253 291 6,200 -1,080 Descending Chicago TRACON
11:34PM 42.1283 -87.9047 50° Northeast 243 280 5,100 -1,140 Descending Chicago Center
11:35PM 42.1664 -87.8311 55° Northeast 228 262 4,000 -600 Descending Chicago Center
11:36PM 42.1369 -87.7797 128° Southeast 201 231 4,000 -480 Level Chicago Center
11:37PM 42.1000 -87.8000 202° Southwest 142 163 3,100 -900 Descending Chicago TRACON